createdAt,value
2018-05-10T00:02:00.782Z,20.50
2018-05-10T00:04:28.865Z,20.50
2018-05-10T00:06:56.937Z,20.50
2018-05-10T00:09:25.029Z,20.40
2018-05-10T00:11:53.090Z,20.40
2018-05-10T00:14:21.121Z,20.40
2018-05-10T00:16:49.188Z,20.30
2018-05-10T00:19:17.230Z,20.20
2018-05-10T00:21:45.294Z,20.20
2018-05-10T00:24:13.358Z,20.20
2018-05-10T00:26:41.407Z,20.20
2018-05-10T00:29:09.489Z,20.20
2018-05-10T00:31:37.538Z,20.10
2018-05-10T00:34:05.638Z,20.10
2018-05-10T00:36:33.720Z,20.10
2018-05-10T00:39:01.786Z,20.10
2018-05-10T00:41:29.867Z,20.00
2018-05-10T00:43:57.952Z,20.00
2018-05-10T00:46:26.029Z,20.00
2018-05-10T00:48:54.094Z,19.90
2018-05-10T00:51:22.156Z,19.90
2018-05-10T00:53:50.229Z,19.90
2018-05-10T00:56:18.299Z,19.90
2018-05-10T00:58:46.362Z,19.80
2018-05-10T01:01:14.431Z,19.80
2018-05-10T01:03:42.569Z,19.70
2018-05-10T01:06:10.610Z,19.60
2018-05-10T01:08:38.650Z,19.70
2018-05-10T01:11:06.749Z,19.60
2018-05-10T01:13:34.800Z,19.60
2018-05-10T01:16:02.873Z,19.50
2018-05-10T01:18:30.963Z,19.50
2018-05-10T01:20:59.036Z,19.50
2018-05-10T01:23:27.082Z,19.50
2018-05-10T01:25:55.173Z,19.40
2018-05-10T01:28:23.238Z,19.50
2018-05-10T01:30:51.311Z,19.40
2018-05-10T01:33:19.394Z,19.40
2018-05-10T01:35:59.291Z,19.30
2018-05-10T01:38:27.360Z,19.30
2018-05-10T01:40:55.483Z,19.30
2018-05-10T01:43:23.552Z,19.30
2018-05-10T01:45:51.625Z,19.30
2018-05-10T01:48:19.676Z,19.20
2018-05-10T01:50:47.723Z,19.20
2018-05-10T01:53:15.825Z,19.20
2018-05-10T01:55:43.897Z,19.20
2018-05-10T01:58:11.935Z,19.10
2018-05-10T02:00:39.994Z,19.10
2018-05-10T02:03:08.084Z,19.10
2018-05-10T02:05:36.124Z,19.10
2018-05-10T02:08:04.971Z,19.00
2018-05-10T02:10:33.031Z,19.00
2018-05-10T02:13:01.085Z,19.00
2018-05-10T02:15:29.175Z,19.00
2018-05-10T02:17:57.226Z,18.90
2018-05-10T02:20:25.325Z,18.90
2018-05-10T02:22:53.373Z,18.90
2018-05-10T02:25:21.438Z,18.90
2018-05-10T02:27:49.531Z,18.90
2018-05-10T02:30:17.668Z,18.90
2018-05-10T02:32:45.693Z,18.80
2018-05-10T02:35:13.762Z,18.80
2018-05-10T02:37:41.827Z,18.80
2018-05-10T02:40:09.886Z,18.70
2018-05-10T02:42:37.956Z,18.70
2018-05-10T02:45:06.027Z,18.70
2018-05-10T02:47:34.094Z,18.70
2018-05-10T02:50:02.170Z,18.60
2018-05-10T02:52:30.291Z,18.50
2018-05-10T02:54:58.310Z,18.50
2018-05-10T02:57:26.362Z,18.40
2018-05-10T02:59:55.182Z,18.30
2018-05-10T03:02:23.243Z,16.70
2018-05-10T03:04:51.306Z,18.20
2018-05-10T03:07:19.358Z,18.20
2018-05-10T03:09:47.449Z,18.10
2018-05-10T03:12:15.537Z,18.10
2018-05-10T03:14:43.583Z,18.10
2018-05-10T03:17:11.641Z,18.00
2018-05-10T03:19:39.728Z,18.10
2018-05-10T03:22:07.801Z,18.10
2018-05-10T03:24:35.870Z,18.10
2018-05-10T03:27:03.926Z,18.10
2018-05-10T03:29:31.986Z,18.10
2018-05-10T03:32:00.815Z,18.00
2018-05-10T03:34:28.849Z,18.00
2018-05-10T03:36:57.755Z,18.10
2018-05-10T03:39:25.796Z,18.00
2018-05-10T03:41:53.869Z,18.00
2018-05-10T03:44:22.688Z,18.10
2018-05-10T03:46:50.780Z,18.10
2018-05-10T03:49:18.837Z,18.10
2018-05-10T03:51:46.895Z,18.00
2018-05-10T03:54:14.965Z,18.00
2018-05-10T03:56:43.050Z,18.00
2018-05-10T03:59:11.638Z,18.00
2018-05-10T04:01:40.417Z,18.10
2018-05-10T04:07:18.006Z,18.10
2018-05-10T04:09:58.837Z,18.10
2018-05-10T04:12:26.902Z,18.10
2018-05-10T04:14:54.935Z,18.00
2018-05-10T04:17:23.021Z,18.30
2018-05-10T04:19:51.071Z,18.00
2018-05-10T04:22:19.966Z,18.10
2018-05-10T04:24:48.035Z,18.10
2018-05-10T04:27:16.879Z,18.20
2018-05-10T04:29:45.715Z,18.30
2018-05-10T04:32:13.762Z,18.20
2018-05-10T04:34:41.831Z,18.30
2018-05-10T04:37:09.885Z,18.40
2018-05-10T04:39:37.957Z,18.40
2018-05-10T04:42:06.022Z,18.40
2018-05-10T04:44:34.108Z,18.50
2018-05-10T04:47:02.171Z,18.50
2018-05-10T04:49:30.238Z,18.60
2018-05-10T04:51:58.310Z,18.60
2018-05-10T04:54:27.150Z,18.60
2018-05-10T04:59:28.707Z,18.60
2018-05-10T05:01:56.762Z,18.50
2018-05-10T05:04:24.811Z,18.50
2018-05-10T05:06:52.925Z,18.50
2018-05-10T05:09:20.960Z,18.60
2018-05-10T05:11:49.018Z,18.60
2018-05-10T05:14:17.172Z,18.70
2018-05-10T05:16:45.210Z,18.70
2018-05-10T05:19:14.078Z,18.90
2018-05-10T05:21:42.123Z,18.90
2018-05-10T05:24:10.180Z,18.90
2018-05-10T05:26:38.244Z,19.00
2018-05-10T05:29:06.332Z,19.40
2018-05-10T05:31:34.381Z,19.50
2018-05-10T05:34:02.474Z,19.60
2018-05-10T05:36:30.555Z,19.80
2018-05-10T05:38:58.641Z,19.90
2018-05-10T05:41:26.722Z,20.10
2018-05-10T05:43:54.785Z,20.30
2018-05-10T05:46:22.854Z,20.50
2018-05-10T05:48:50.928Z,20.90
2018-05-10T05:51:19.025Z,21.30
2018-05-10T05:53:47.075Z,21.30
2018-05-10T05:56:15.118Z,21.90
2018-05-10T05:58:43.196Z,23.50
2018-05-10T06:01:11.257Z,25.40
2018-05-10T06:03:39.346Z,27.00
2018-05-10T06:06:07.395Z,28.40
2018-05-10T06:08:35.537Z,29.40
2018-05-10T06:11:03.545Z,29.70
2018-05-10T06:13:31.622Z,30.40
2018-05-10T06:16:00.541Z,31.60
2018-05-10T06:18:28.489Z,31.60
2018-05-10T06:20:56.569Z,32.00
2018-05-10T06:23:24.654Z,32.50
2018-05-10T06:25:52.707Z,32.80
2018-05-10T06:28:20.817Z,33.10
2018-05-10T06:30:48.854Z,33.40
2018-05-10T06:33:17.017Z,33.40
2018-05-10T06:35:45.088Z,33.60
2018-05-10T06:38:13.178Z,33.90
2018-05-10T06:40:41.233Z,34.60
2018-05-10T06:43:09.293Z,34.90
2018-05-10T06:45:37.375Z,35.10
2018-05-10T06:48:06.177Z,35.60
2018-05-10T06:50:34.237Z,35.50
2018-05-10T06:53:02.692Z,35.80
2018-05-10T06:55:30.763Z,35.80
2018-05-10T06:57:58.806Z,35.90
2018-05-10T07:00:27.641Z,36.00
2018-05-10T07:02:55.672Z,36.00
2018-05-10T07:05:24.505Z,36.10
2018-05-10T07:07:52.632Z,36.00
2018-05-10T07:10:20.740Z,36.20
2018-05-10T07:12:48.856Z,37.40
2018-05-10T07:15:17.666Z,38.00
2018-05-10T07:17:45.731Z,38.70
2018-05-10T07:20:14.609Z,38.90
2018-05-10T07:22:42.808Z,39.00
2018-05-10T07:25:10.895Z,38.90
2018-05-10T07:27:39.805Z,38.70
2018-05-10T07:30:07.859Z,38.70
2018-05-10T07:32:35.930Z,38.80
2018-05-10T07:35:04.822Z,39.00
2018-05-10T07:37:32.868Z,39.50
2018-05-10T07:40:02.605Z,39.70
2018-05-10T07:42:30.628Z,39.80
2018-05-10T07:44:58.658Z,40.30
2018-05-10T07:47:26.843Z,40.90
2018-05-10T07:49:54.805Z,40.90
2018-05-10T07:52:22.849Z,41.10
2018-05-10T07:54:50.943Z,40.90
2018-05-10T07:57:19.007Z,41.00
2018-05-10T07:59:47.064Z,41.50
2018-05-10T08:02:15.160Z,41.40
2018-05-10T08:04:43.608Z,41.50
2018-05-10T08:07:11.690Z,41.50
2018-05-10T08:09:40.163Z,41.90
2018-05-10T08:12:08.201Z,41.80
2018-05-10T08:14:36.267Z,41.80
2018-05-10T08:17:04.346Z,42.00
2018-05-10T08:19:32.404Z,42.30
2018-05-10T08:22:00.471Z,43.30
2018-05-10T08:24:28.556Z,43.20
2018-05-10T08:26:56.609Z,43.50
2018-05-10T08:29:30.468Z,43.80
2018-05-10T08:31:58.614Z,44.40
2018-05-10T08:34:27.671Z,45.20
2018-05-10T08:36:55.773Z,45.60
2018-05-10T08:39:24.617Z,45.70
2018-05-10T08:41:52.728Z,45.70
2018-05-10T08:44:20.778Z,46.00
2018-05-10T08:46:48.839Z,46.40
2018-05-10T08:49:16.934Z,46.20
2018-05-10T08:51:45.057Z,46.30
2018-05-10T08:54:13.070Z,46.30
2018-05-10T08:56:41.126Z,46.20
2018-05-10T08:59:09.205Z,46.40
2018-05-10T09:01:37.269Z,46.30
2018-05-10T09:04:05.361Z,46.30
2018-05-10T09:06:33.422Z,46.70
2018-05-10T09:09:01.483Z,46.70
2018-05-10T09:11:29.573Z,46.30
2018-05-10T09:13:57.643Z,45.90
2018-05-10T09:16:25.718Z,46.20
2018-05-10T09:18:53.774Z,46.40
2018-05-10T09:21:21.846Z,46.20
2018-05-10T09:23:49.952Z,46.20
2018-05-10T09:26:18.015Z,45.80
2018-05-10T09:28:46.083Z,46.10
2018-05-10T09:31:14.134Z,45.90
2018-05-10T09:33:42.976Z,45.70
2018-05-10T09:36:11.291Z,45.70
2018-05-10T09:38:39.356Z,45.70
2018-05-10T09:41:07.418Z,45.20
2018-05-10T09:43:36.645Z,45.20
2018-05-10T09:46:04.708Z,45.20
2018-05-10T09:48:32.799Z,45.20
2018-05-10T09:51:00.857Z,45.10
2018-05-10T09:53:30.402Z,45.00
2018-05-10T09:55:58.480Z,45.20
2018-05-10T09:58:26.534Z,45.20
2018-05-10T10:00:54.605Z,45.00
2018-05-10T10:03:22.658Z,44.60
2018-05-10T10:05:50.759Z,44.30
2018-05-10T10:08:18.789Z,44.10
2018-05-10T10:10:46.847Z,44.00
2018-05-10T10:13:14.910Z,43.90
2018-05-10T10:15:42.993Z,43.40
2018-05-10T10:18:11.050Z,43.00
2018-05-10T10:20:39.123Z,42.70
2018-05-10T10:23:07.183Z,42.30
2018-05-10T10:25:35.265Z,41.40
2018-05-10T10:28:03.353Z,39.80
2018-05-10T10:30:31.433Z,37.30
2018-05-10T10:32:59.485Z,37.30
2018-05-10T10:35:27.542Z,37.30
2018-05-10T10:37:55.662Z,38.30
2018-05-10T10:40:23.707Z,38.40
2018-05-10T10:42:51.769Z,38.80
2018-05-10T10:45:19.845Z,39.10
2018-05-10T10:47:47.896Z,39.50
2018-05-10T10:50:16.737Z,39.50
2018-05-10T10:52:44.807Z,39.50
2018-05-10T10:55:13.445Z,38.80
2018-05-10T10:57:41.452Z,38.80
2018-05-10T11:00:09.528Z,38.40
2018-05-10T11:02:37.574Z,38.00
2018-05-10T11:05:05.623Z,38.00
2018-05-10T11:07:34.494Z,38.50
2018-05-10T11:10:03.339Z,38.10
2018-05-10T11:12:31.402Z,38.00
2018-05-10T11:14:59.562Z,37.60
2018-05-10T11:17:27.565Z,36.90
2018-05-10T11:19:55.597Z,36.60
2018-05-10T11:22:23.671Z,36.60
2018-05-10T11:24:51.731Z,36.30
2018-05-10T11:27:20.722Z,36.00
2018-05-10T11:29:48.690Z,36.30
2018-05-10T11:32:16.797Z,36.30
2018-05-10T11:34:44.835Z,36.30
2018-05-10T11:37:13.729Z,36.20
2018-05-10T11:39:42.584Z,36.10
2018-05-10T11:42:11.409Z,35.90
2018-05-10T11:44:39.501Z,35.90
2018-05-10T11:47:07.589Z,35.70
2018-05-10T11:49:35.638Z,35.70
2018-05-10T11:52:03.738Z,35.60
2018-05-10T11:54:31.787Z,35.40
2018-05-10T11:56:59.829Z,35.10
2018-05-10T11:59:28.653Z,34.60
2018-05-10T12:01:56.760Z,34.40
2018-05-10T12:04:25.354Z,33.80
2018-05-10T12:06:53.482Z,33.80
2018-05-10T12:09:21.585Z,33.70
2018-05-10T12:11:50.065Z,33.40
2018-05-10T12:14:18.133Z,33.10
2018-05-10T12:16:46.222Z,33.10
2018-05-10T12:19:14.385Z,33.10
2018-05-10T12:21:42.317Z,33.00
2018-05-10T12:24:10.387Z,32.80
2018-05-10T12:26:38.435Z,32.50
2018-05-10T12:29:07.617Z,32.00
2018-05-10T12:31:36.423Z,31.60
2018-05-10T12:34:04.490Z,31.60
2018-05-10T12:36:33.414Z,31.20
2018-05-10T12:39:01.456Z,31.20
2018-05-10T12:41:29.558Z,31.00
2018-05-10T12:43:58.318Z,30.10
2018-05-10T12:46:26.389Z,30.00
2018-05-10T12:48:55.230Z,29.60
2018-05-10T12:51:23.457Z,29.60
2018-05-10T12:53:51.589Z,29.30
2018-05-10T12:56:19.721Z,28.80
2018-05-10T12:58:47.709Z,28.40
2018-05-10T13:01:15.776Z,28.30
2018-05-10T13:03:43.845Z,27.70
2018-05-10T13:06:11.915Z,27.40
2018-05-10T13:08:40.772Z,27.30
2018-05-10T13:11:08.813Z,27.30
2018-05-10T13:13:36.881Z,27.10
2018-05-10T13:16:04.932Z,26.70
2018-05-10T13:18:33.062Z,26.50
2018-05-10T13:21:01.081Z,26.20
2018-05-10T13:23:29.208Z,25.90
2018-05-10T13:25:57.245Z,25.60
2018-05-10T13:28:25.313Z,25.60
2018-05-10T13:30:53.393Z,25.00
2018-05-10T13:33:22.211Z,25.00
2018-05-10T13:35:50.249Z,25.00
2018-05-10T13:38:18.382Z,25.20
2018-05-10T13:40:47.162Z,25.20
2018-05-10T13:43:15.245Z,25.10
2018-05-10T13:45:43.306Z,25.10
2018-05-10T13:48:11.378Z,25.10
2018-05-10T13:50:39.534Z,25.20
2018-05-10T13:53:07.571Z,25.20
2018-05-10T13:55:35.646Z,25.30
2018-05-10T13:58:04.977Z,25.30
2018-05-10T14:00:33.063Z,25.40
2018-05-10T14:03:01.166Z,25.30
2018-05-10T14:05:29.206Z,25.20
2018-05-10T14:07:57.275Z,25.10
2018-05-10T14:10:25.354Z,25.00
2018-05-10T14:12:53.426Z,25.00
2018-05-10T14:15:21.499Z,25.10
2018-05-10T14:17:49.648Z,25.20
2018-05-10T14:20:18.453Z,25.20
2018-05-10T14:22:46.504Z,25.10
2018-05-10T14:25:14.645Z,25.40
2018-05-10T14:27:42.663Z,25.50
2018-05-10T14:30:10.772Z,25.40
2018-05-10T14:32:38.804Z,25.50
2018-05-10T14:35:06.855Z,25.80
2018-05-10T14:37:35.696Z,26.00
2018-05-10T14:40:03.824Z,26.00
2018-05-10T14:42:31.840Z,26.20
2018-05-10T14:44:59.902Z,26.30
2018-05-10T14:47:27.983Z,26.40
2018-05-10T14:49:56.035Z,26.50
2018-05-10T14:52:24.102Z,26.50
2018-05-10T14:54:52.714Z,26.30
2018-05-10T14:57:20.775Z,26.10
2018-05-10T14:59:48.878Z,26.00
2018-05-10T15:02:16.918Z,26.10
2018-05-10T15:04:44.985Z,26.10
2018-05-10T15:07:13.055Z,26.20
2018-05-10T15:09:41.121Z,26.20
2018-05-10T15:12:09.173Z,25.80
2018-05-10T15:14:37.219Z,25.60
2018-05-10T15:17:05.278Z,24.80
2018-05-10T15:19:33.336Z,24.50
2018-05-10T15:22:01.382Z,24.40
2018-05-10T15:24:29.445Z,24.10
2018-05-10T15:26:57.517Z,24.30
2018-05-10T15:29:25.566Z,23.90
2018-05-10T15:31:53.615Z,23.80
2018-05-10T15:34:21.675Z,23.70
2018-05-10T15:36:49.743Z,23.40
2018-05-10T15:39:17.774Z,23.20
2018-05-10T15:41:45.846Z,23.10
2018-05-10T15:44:15.047Z,23.00
2018-05-10T15:46:43.187Z,22.80
2018-05-10T15:49:11.193Z,22.60
2018-05-10T15:51:40.430Z,22.40
2018-05-10T15:54:08.836Z,22.40
2018-05-10T15:56:37.662Z,22.30
2018-05-10T15:59:05.714Z,22.20
2018-05-10T16:01:33.785Z,22.20
2018-05-10T16:04:01.899Z,22.10
2018-05-10T16:06:30.699Z,22.00
2018-05-10T16:08:59.126Z,21.90
2018-05-10T16:11:27.198Z,21.80
2018-05-10T16:13:55.324Z,21.80
2018-05-10T16:16:24.825Z,21.70
2018-05-10T16:18:54.385Z,21.70
2018-05-10T16:21:23.206Z,21.60
2018-05-10T16:23:51.250Z,21.60
2018-05-10T16:26:19.398Z,21.60
2018-05-10T16:28:47.353Z,21.50
2018-05-10T16:31:16.206Z,21.20
2018-05-10T16:33:45.033Z,21.00
2018-05-10T16:36:13.830Z,21.00
2018-05-10T16:38:42.709Z,21.00
2018-05-10T16:41:12.143Z,21.00
2018-05-10T16:43:40.226Z,21.00
2018-05-10T16:46:08.259Z,20.80
2018-05-10T16:48:37.160Z,20.70
2018-05-10T16:51:05.211Z,18.80
2018-05-10T16:53:33.270Z,20.50
2018-05-10T16:56:01.338Z,20.40
2018-05-10T16:58:29.506Z,20.50
2018-05-10T17:00:57.585Z,20.50
2018-05-10T17:03:25.653Z,20.50
2018-05-10T17:05:53.759Z,20.30
2018-05-10T17:08:22.595Z,20.20
2018-05-10T17:10:51.638Z,20.20
2018-05-10T17:13:20.449Z,20.20
2018-05-10T17:15:48.502Z,20.20
2018-05-10T17:18:16.663Z,20.30
2018-05-10T17:20:45.551Z,20.10
2018-05-10T17:23:13.808Z,20.10
2018-05-10T17:25:42.767Z,19.90
2018-05-10T17:28:11.791Z,19.90
2018-05-10T17:30:39.932Z,19.90
2018-05-10T17:33:08.237Z,19.90
2018-05-10T17:35:36.381Z,20.00
2018-05-10T17:38:04.501Z,20.00
2018-05-10T17:40:33.427Z,20.10
2018-05-10T17:43:01.469Z,20.10
2018-05-10T17:45:29.550Z,16.90
2018-05-10T17:47:57.711Z,20.20
2018-05-10T17:50:25.833Z,20.30
2018-05-10T17:52:53.894Z,20.20
2018-05-10T17:55:22.078Z,20.10
2018-05-10T17:57:50.087Z,20.10
2018-05-10T18:00:18.146Z,20.00
2018-05-10T18:02:46.198Z,19.90
2018-05-10T18:05:14.345Z,19.80
2018-05-10T18:07:42.371Z,19.70
2018-05-10T18:10:11.161Z,19.70
2018-05-10T18:12:39.665Z,19.70
2018-05-10T18:15:07.721Z,19.50
2018-05-10T18:17:36.342Z,19.40
2018-05-10T18:20:05.170Z,19.30
2018-05-10T18:22:33.233Z,19.20
2018-05-10T18:25:01.307Z,19.20
2018-05-10T18:27:29.408Z,19.10
2018-05-10T18:29:57.448Z,19.00
2018-05-10T18:32:25.538Z,19.00
2018-05-10T18:34:53.573Z,18.90
2018-05-10T18:37:21.637Z,18.90
2018-05-10T18:39:49.724Z,18.80
2018-05-10T18:42:17.783Z,18.80
2018-05-10T18:44:45.862Z,18.90
2018-05-10T18:47:13.945Z,18.90
2018-05-10T18:49:41.997Z,18.40
2018-05-10T18:52:10.101Z,18.50
2018-05-10T18:54:38.243Z,22.10
2018-05-10T18:57:07.021Z,18.30
2018-05-10T18:59:35.178Z,18.20
2018-05-10T19:02:03.277Z,18.10
2018-05-10T19:04:31.321Z,18.10
2018-05-10T19:07:00.173Z,18.00
2018-05-10T19:09:28.231Z,17.90
2018-05-10T19:11:57.089Z,18.00
2018-05-10T19:14:25.166Z,18.00
2018-05-10T19:16:53.268Z,18.00
2018-05-10T19:19:21.290Z,17.90
2018-05-10T19:21:50.151Z,17.90
2018-05-10T19:24:18.190Z,17.90
2018-05-10T19:26:46.263Z,17.90
2018-05-10T19:29:14.331Z,18.00
2018-05-10T19:31:42.423Z,18.00
2018-05-10T19:34:10.558Z,18.10
2018-05-10T19:36:38.592Z,18.20
2018-05-10T19:39:06.662Z,18.00
2018-05-10T19:41:34.702Z,17.90
2018-05-10T19:44:02.744Z,17.90
2018-05-10T19:46:30.822Z,17.90
2018-05-10T19:48:58.914Z,17.90
2018-05-10T19:51:26.993Z,17.90
2018-05-10T19:53:55.042Z,17.80
2018-05-10T19:56:23.085Z,17.70
2018-05-10T19:58:51.988Z,17.70
2018-05-10T20:01:20.804Z,17.70
2018-05-10T20:03:49.735Z,17.70
2018-05-10T20:06:17.795Z,17.70
2018-05-10T20:08:45.833Z,17.70
2018-05-10T20:11:13.881Z,17.70
2018-05-10T20:13:42.026Z,17.70
2018-05-10T20:16:10.757Z,17.70
2018-05-10T20:18:38.781Z,17.70
2018-05-10T20:21:06.965Z,17.60
2018-05-10T20:23:34.977Z,17.50
2018-05-10T20:26:03.142Z,13.50
2018-05-10T20:28:31.204Z,17.50
2018-05-10T20:30:59.165Z,17.40
2018-05-10T20:33:27.213Z,17.40
2018-05-10T20:35:55.329Z,17.40
2018-05-10T20:38:23.357Z,17.40
2018-05-10T20:40:52.219Z,17.40
2018-05-10T20:43:20.301Z,17.40
2018-05-10T20:45:48.309Z,17.30
2018-05-10T20:48:17.142Z,17.30
2018-05-10T20:50:45.198Z,17.30
2018-05-10T20:53:13.282Z,17.40
2018-05-10T20:55:41.335Z,17.30
2018-05-10T20:58:09.386Z,17.40
2018-05-10T21:00:37.474Z,17.40
2018-05-10T21:03:05.551Z,17.40
2018-05-10T21:05:33.635Z,17.40
2018-05-10T21:08:01.707Z,17.40
2018-05-10T21:10:29.829Z,17.40
2018-05-10T21:12:58.617Z,17.30
2018-05-10T21:15:27.416Z,17.30
2018-05-10T21:17:56.266Z,17.30
2018-05-10T21:20:24.318Z,17.30
2018-05-10T21:22:52.411Z,17.30
2018-05-10T21:25:20.462Z,17.30
2018-05-10T21:27:48.521Z,17.30
2018-05-10T21:30:17.359Z,17.30
2018-05-10T21:32:45.438Z,17.30
2018-05-10T21:35:13.603Z,17.30
2018-05-10T21:37:41.682Z,19.10
2018-05-10T21:40:10.541Z,17.20
2018-05-10T21:42:38.589Z,17.20
2018-05-10T21:45:06.697Z,17.20
2018-05-10T21:47:34.750Z,17.20
2018-05-10T21:50:05.592Z,17.20
2018-05-10T21:52:33.683Z,17.20
2018-05-10T21:55:01.749Z,17.10
2018-05-10T21:57:29.790Z,17.10
2018-05-10T21:59:57.841Z,17.10
2018-05-10T22:02:25.933Z,17.20
2018-05-10T22:04:54.037Z,17.20
2018-05-10T22:07:22.113Z,17.10
2018-05-10T22:09:50.149Z,17.10
2018-05-10T22:12:18.224Z,17.10
2018-05-10T22:14:46.296Z,17.10
2018-05-10T22:17:14.357Z,17.00
2018-05-10T22:19:42.426Z,17.00
2018-05-10T22:22:10.497Z,17.00
2018-05-10T22:24:38.585Z,17.00
2018-05-10T22:27:06.640Z,16.90
2018-05-10T22:29:34.739Z,16.90
2018-05-10T22:32:02.813Z,16.90
2018-05-10T22:34:30.856Z,16.90
2018-05-10T22:36:58.991Z,16.90
2018-05-10T22:39:27.046Z,16.80
2018-05-10T22:41:55.129Z,16.80
2018-05-10T22:44:24.042Z,16.70
2018-05-10T22:46:52.070Z,16.70
2018-05-10T22:49:20.142Z,16.70
2018-05-10T22:51:48.174Z,16.60
2018-05-10T22:54:16.250Z,16.60
2018-05-10T22:56:44.320Z,16.50
2018-05-10T22:59:12.424Z,16.50
2018-05-10T23:01:40.491Z,16.40
2018-05-10T23:04:08.563Z,16.40
2018-05-10T23:06:36.598Z,16.40
2018-05-10T23:09:04.673Z,16.40
2018-05-10T23:11:32.737Z,16.40
2018-05-10T23:14:00.802Z,16.40
2018-05-10T23:16:29.220Z,16.40
2018-05-10T23:18:57.294Z,16.30
2018-05-10T23:21:25.351Z,16.40
2018-05-10T23:23:53.418Z,16.40
2018-05-10T23:26:21.485Z,16.40
2018-05-10T23:28:49.528Z,16.40
2018-05-10T23:31:17.627Z,16.40
2018-05-10T23:33:45.684Z,16.40
2018-05-10T23:36:14.282Z,16.40
2018-05-10T23:38:42.427Z,16.30
2018-05-10T23:41:10.498Z,16.30
2018-05-10T23:43:39.313Z,16.20
2018-05-10T23:46:07.382Z,16.20
2018-05-10T23:48:35.454Z,16.10
2018-05-10T23:51:03.517Z,16.10
2018-05-10T23:53:32.390Z,16.10
2018-05-10T23:56:00.453Z,16.10
2018-05-10T23:58:29.277Z,16.10
